createdAt,value
2017-06-16T00:00:29.536Z,0
2017-06-16T00:01:39.077Z,0
2017-06-16T00:02:47.961Z,0
2017-06-16T00:03:56.848Z,0
2017-06-16T00:05:06.067Z,0
2017-06-16T00:06:15.332Z,0
2017-06-16T00:07:24.545Z,0
2017-06-16T00:08:33.754Z,0
2017-06-16T00:09:42.642Z,0
2017-06-16T00:10:51.532Z,0
2017-06-16T00:12:00.623Z,0
2017-06-16T00:13:09.517Z,0
2017-06-16T00:14:18.734Z,0
2017-06-16T00:15:27.620Z,0
2017-06-16T00:16:36.513Z,0
2017-06-16T00:17:45.723Z,0
2017-06-16T00:18:54.611Z,0
2017-06-16T00:20:03.827Z,0
2017-06-16T00:21:13.364Z,0
2017-06-16T00:22:22.257Z,0
2017-06-16T00:23:31.294Z,0
2017-06-16T00:24:40.827Z,0
2017-06-16T00:25:50.056Z,0
2017-06-16T00:26:59.268Z,0
2017-06-16T00:28:08.159Z,0
2017-06-16T00:29:17.423Z,0
2017-06-16T00:30:26.638Z,0
2017-06-16T00:31:35.528Z,0
2017-06-16T00:32:44.737Z,0
2017-06-16T00:33:53.950Z,0
2017-06-16T00:35:02.995Z,0
2017-06-16T00:36:11.882Z,0
2017-06-16T00:37:20.767Z,0
2017-06-16T00:38:29.651Z,0
2017-06-16T00:39:38.574Z,0
2017-06-16T00:40:47.612Z,0
2017-06-16T00:41:56.944Z,0
2017-06-16T00:43:05.831Z,0
2017-06-16T00:44:14.721Z,0
2017-06-16T00:45:23.929Z,0
2017-06-16T00:46:32.966Z,0
2017-06-16T00:47:42.179Z,0
2017-06-16T00:48:51.718Z,0
2017-06-16T00:50:00.613Z,0
2017-06-16T00:51:09.505Z,0
2017-06-16T00:52:18.443Z,0
2017-06-16T00:53:27.657Z,0
2017-06-16T00:54:36.543Z,0
2017-06-16T00:55:45.432Z,0
2017-06-16T00:56:54.987Z,0
2017-06-16T00:58:04.680Z,0
2017-06-16T00:59:13.566Z,0
2017-06-16T01:00:22.452Z,0
2017-06-16T01:01:31.340Z,0
2017-06-16T01:02:40.555Z,0
2017-06-16T01:03:49.443Z,0
2017-06-16T01:04:58.333Z,0
2017-06-16T01:06:07.221Z,0
2017-06-16T01:07:16.111Z,0
2017-06-16T01:08:25.328Z,0
2017-06-16T01:09:34.694Z,0
2017-06-16T01:10:43.581Z,0
2017-06-16T01:11:52.794Z,0
2017-06-16T01:13:02.008Z,0
2017-06-16T01:14:10.896Z,0
2017-06-16T01:15:20.157Z,0
2017-06-16T01:16:29.044Z,0
2017-06-16T01:17:37.934Z,0
2017-06-16T01:18:47.472Z,0
2017-06-16T01:19:56.364Z,0
2017-06-16T01:21:05.627Z,0
2017-06-16T01:22:14.846Z,0
2017-06-16T01:23:24.060Z,0
2017-06-16T01:24:32.947Z,0
2017-06-16T01:25:41.832Z,0
2017-06-16T01:26:51.297Z,0
2017-06-16T01:28:00.831Z,0
2017-06-16T01:29:09.758Z,0
2017-06-16T01:30:18.646Z,0
2017-06-16T01:31:27.533Z,0
2017-06-16T01:32:36.568Z,0
2017-06-16T01:33:46.108Z,0
2017-06-16T01:34:55.321Z,0
2017-06-16T01:36:04.531Z,0
2017-06-16T01:37:13.418Z,0
2017-06-16T01:38:22.304Z,0
2017-06-16T01:39:31.188Z,0
2017-06-16T01:40:40.074Z,0
2017-06-16T01:41:48.966Z,0
2017-06-16T01:42:57.854Z,0
2017-06-16T01:44:07.218Z,0
2017-06-16T01:45:16.433Z,0
2017-06-16T01:46:25.328Z,0
2017-06-16T01:47:34.217Z,0
2017-06-16T01:48:43.103Z,0
2017-06-16T01:49:52.626Z,0
2017-06-16T01:51:01.510Z,0
2017-06-16T01:52:10.395Z,0
2017-06-16T01:53:19.281Z,0
2017-06-16T01:54:28.167Z,0
2017-06-16T01:55:37.210Z,0
2017-06-16T01:56:46.100Z,0
2017-06-16T01:57:54.993Z,0
2017-06-16T01:59:04.208Z,0
2017-06-16T02:00:13.424Z,0
2017-06-16T02:01:22.461Z,0
2017-06-16T02:02:31.350Z,0
2017-06-16T02:03:40.237Z,0
2017-06-16T02:04:49.122Z,0
2017-06-16T02:05:58.328Z,0
2017-06-16T02:07:07.569Z,0
2017-06-16T02:08:16.453Z,0
2017-06-16T02:09:25.347Z,0
2017-06-16T02:10:34.233Z,0
2017-06-16T02:11:43.121Z,0
2017-06-16T02:12:52.312Z,0
2017-06-16T02:14:01.198Z,0
2017-06-16T02:15:10.409Z,0
2017-06-16T02:16:19.621Z,0
2017-06-16T02:17:28.510Z,0
2017-06-16T02:18:37.402Z,0
2017-06-16T02:19:46.288Z,0
2017-06-16T02:20:55.504Z,0
2017-06-16T02:22:04.726Z,0
2017-06-16T02:23:13.944Z,0
2017-06-16T02:24:22.985Z,0
2017-06-16T02:25:31.875Z,0
2017-06-16T02:26:40.762Z,4
2017-06-16T02:27:49.992Z,0
2017-06-16T02:28:59.204Z,4
2017-06-16T02:30:08.839Z,4
2017-06-16T02:31:18.099Z,8
2017-06-16T02:32:26.988Z,4
2017-06-16T02:33:36.208Z,4
2017-06-16T02:34:45.421Z,8
2017-06-16T02:35:54.972Z,8
2017-06-16T02:37:04.184Z,8
2017-06-16T02:38:13.399Z,8
2017-06-16T02:39:22.617Z,12
2017-06-16T02:40:31.503Z,12
2017-06-16T02:41:40.870Z,16
2017-06-16T02:42:49.758Z,16
2017-06-16T02:43:58.685Z,16
2017-06-16T02:45:07.574Z,20
2017-06-16T02:46:16.464Z,20
2017-06-16T02:47:25.829Z,24
2017-06-16T02:48:35.042Z,28
2017-06-16T02:49:44.258Z,32
2017-06-16T02:50:53.145Z,36
2017-06-16T02:52:02.030Z,40
2017-06-16T02:53:11.018Z,44
2017-06-16T02:54:20.555Z,48
2017-06-16T02:55:29.438Z,52
2017-06-16T02:56:38.652Z,56
2017-06-16T02:57:47.861Z,64
2017-06-16T02:58:57.413Z,68
2017-06-16T03:00:06.300Z,76
2017-06-16T03:01:15.510Z,80
2017-06-16T03:02:24.400Z,84
2017-06-16T03:03:33.282Z,84
2017-06-16T03:04:42.215Z,88
2017-06-16T03:05:51.108Z,96
2017-06-16T03:06:59.999Z,92
2017-06-16T03:08:08.890Z,92
2017-06-16T03:09:18.105Z,92
2017-06-16T03:10:27.146Z,84
2017-06-16T03:11:36.032Z,84
2017-06-16T03:12:45.245Z,76
2017-06-16T03:13:54.131Z,68
2017-06-16T03:15:03.021Z,88
2017-06-16T03:16:12.537Z,80
2017-06-16T03:17:21.422Z,88
2017-06-16T03:18:30.311Z,96
2017-06-16T03:19:39.198Z,92
2017-06-16T03:20:48.090Z,108
2017-06-16T03:21:57.127Z,128
2017-06-16T03:23:06.339Z,136
2017-06-16T03:24:15.876Z,160
2017-06-16T03:25:24.762Z,180
2017-06-16T03:26:33.976Z,144
2017-06-16T03:27:43.335Z,156
2017-06-16T03:28:52.220Z,196
2017-06-16T03:30:01.432Z,208
2017-06-16T03:31:10.639Z,216
2017-06-16T03:32:19.855Z,212
2017-06-16T03:33:29.070Z,224
2017-06-16T03:34:37.961Z,232
2017-06-16T03:35:46.847Z,252
2017-06-16T03:36:56.384Z,276
2017-06-16T03:38:05.595Z,304
2017-06-16T03:39:14.912Z,316
2017-06-16T03:40:23.802Z,364
2017-06-16T03:41:32.687Z,400
2017-06-16T03:42:41.897Z,428
2017-06-16T03:43:50.789Z,412
2017-06-16T03:45:00.156Z,420
2017-06-16T03:46:09.045Z,452
2017-06-16T03:47:17.936Z,464
2017-06-16T03:48:26.821Z,460
2017-06-16T03:49:35.708Z,484
2017-06-16T03:50:45.023Z,488
2017-06-16T03:51:54.561Z,452
2017-06-16T03:53:03.777Z,432
2017-06-16T03:54:12.668Z,452
2017-06-16T03:55:21.881Z,476
2017-06-16T03:56:31.193Z,504
2017-06-16T03:57:40.082Z,532
2017-06-16T03:58:49.619Z,584
2017-06-16T03:59:58.828Z,692
2017-06-16T04:01:07.716Z,728
2017-06-16T04:02:16.844Z,812
2017-06-16T04:03:25.729Z,816
2017-06-16T04:04:34.614Z,816
2017-06-16T04:05:43.503Z,828
2017-06-16T04:06:52.393Z,840
2017-06-16T04:08:01.430Z,848
2017-06-16T04:09:10.316Z,892
2017-06-16T04:10:19.206Z,920
2017-06-16T04:11:28.100Z,960
2017-06-16T04:12:37.312Z,924
2017-06-16T04:13:46.521Z,912
2017-06-16T04:14:55.411Z,888
2017-06-16T04:16:04.673Z,904
2017-06-16T04:17:13.881Z,864
2017-06-16T04:18:22.768Z,820
2017-06-16T04:19:31.810Z,772
2017-06-16T04:20:41.346Z,728
2017-06-16T04:21:50.234Z,680
2017-06-16T04:22:59.123Z,636
2017-06-16T04:24:08.658Z,636
2017-06-16T04:25:17.601Z,628
2017-06-16T04:26:26.497Z,624
2017-06-16T04:27:35.707Z,640
2017-06-16T04:28:44.592Z,656
2017-06-16T04:29:53.482Z,680
2017-06-16T04:31:03.117Z,712
2017-06-16T04:32:12.008Z,748
2017-06-16T04:33:21.221Z,864
2017-06-16T04:34:30.432Z,884
2017-06-16T04:35:39.644Z,1036
2017-06-16T04:36:48.534Z,992
2017-06-16T04:37:57.746Z,932
2017-06-16T04:39:06.962Z,896
2017-06-16T04:40:15.850Z,984
2017-06-16T04:41:24.738Z,916
2017-06-16T04:42:33.727Z,932
2017-06-16T04:43:42.937Z,924
2017-06-16T04:44:51.830Z,916
2017-06-16T04:46:00.718Z,940
2017-06-16T04:47:09.929Z,944
2017-06-16T04:48:18.964Z,948
2017-06-16T04:49:27.851Z,1004
2017-06-16T04:50:36.744Z,932
2017-06-16T04:51:45.630Z,976
2017-06-16T04:52:54.523Z,980
2017-06-16T04:54:03.562Z,1036
2017-06-16T04:55:12.449Z,996
2017-06-16T04:56:21.338Z,1000
2017-06-16T04:57:30.572Z,960
2017-06-16T04:58:39.790Z,1020
2017-06-16T04:59:49.384Z,1036
2017-06-16T05:00:58.274Z,1172
2017-06-16T05:02:07.485Z,1352
2017-06-16T05:03:16.370Z,1388
2017-06-16T05:04:25.587Z,1244
2017-06-16T05:05:34.476Z,1264
2017-06-16T05:06:43.362Z,1492
2017-06-16T05:07:52.583Z,1260
2017-06-16T05:09:01.472Z,1596
2017-06-16T05:10:10.362Z,2244
2017-06-16T05:11:19.727Z,2392
2017-06-16T05:12:28.614Z,2020
2017-06-16T05:13:37.500Z,1308
2017-06-16T05:14:46.386Z,1052
2017-06-16T05:15:55.274Z,868
2017-06-16T05:17:04.314Z,844
2017-06-16T05:18:13.201Z,852
2017-06-16T05:19:22.417Z,900
2017-06-16T05:20:31.307Z,1020
2017-06-16T05:21:40.519Z,964
2017-06-16T05:22:49.557Z,1024
2017-06-16T05:23:58.448Z,1024
2017-06-16T05:25:07.661Z,1024
2017-06-16T05:26:16.550Z,1016
2017-06-16T05:27:25.439Z,1032
2017-06-16T05:28:34.956Z,1032
2017-06-16T05:29:43.843Z,1028
2017-06-16T05:30:52.734Z,1036
2017-06-16T05:32:01.623Z,1032
2017-06-16T05:33:10.836Z,1080
2017-06-16T05:34:20.052Z,1164
2017-06-16T05:35:28.942Z,1372
2017-06-16T05:36:38.160Z,1700
2017-06-16T05:37:47.047Z,1796
2017-06-16T05:38:55.938Z,1676
2017-06-16T05:40:04.985Z,1668
2017-06-16T05:41:13.880Z,1544
2017-06-16T05:42:22.767Z,1476
2017-06-16T05:43:31.661Z,1408
2017-06-16T05:44:40.871Z,1360
2017-06-16T05:45:50.083Z,1232
2017-06-16T05:46:58.970Z,1184
2017-06-16T05:48:07.864Z,1192
2017-06-16T05:49:16.751Z,1192
2017-06-16T05:50:25.966Z,1276
2017-06-16T05:51:35.930Z,1104
2017-06-16T05:52:45.473Z,1124
2017-06-16T05:53:54.693Z,1312
2017-06-16T05:55:03.582Z,1376
2017-06-16T05:56:12.797Z,1580
2017-06-16T05:57:21.736Z,1656
2017-06-16T05:58:30.623Z,1824
2017-06-16T05:59:39.508Z,1584
2017-06-16T06:00:48.716Z,2908
2017-06-16T06:01:57.606Z,2344
2017-06-16T06:03:06.926Z,2468
2017-06-16T06:04:15.814Z,2360
2017-06-16T06:05:24.705Z,1628
2017-06-16T06:06:33.921Z,1908
2017-06-16T06:07:43.137Z,1232
2017-06-16T06:08:52.175Z,1196
2017-06-16T06:10:01.066Z,1752
2017-06-16T06:11:09.959Z,2192
2017-06-16T06:12:19.507Z,2156
2017-06-16T06:13:28.397Z,1904
2017-06-16T06:14:37.587Z,1612
2017-06-16T06:15:46.475Z,1592
2017-06-16T06:16:55.685Z,1544
2017-06-16T06:18:04.902Z,1620
2017-06-16T06:19:13.792Z,1856
2017-06-16T06:20:23.155Z,1900
2017-06-16T06:21:32.043Z,1600
2017-06-16T06:22:40.934Z,1900
2017-06-16T06:23:49.824Z,1688
2017-06-16T06:24:58.714Z,1888
2017-06-16T06:26:08.231Z,1388
2017-06-16T06:27:17.768Z,1356
2017-06-16T06:28:27.308Z,1424
2017-06-16T06:29:36.196Z,1256
2017-06-16T06:30:45.095Z,1684
2017-06-16T06:31:54.137Z,1108
2017-06-16T06:33:03.027Z,1224
2017-06-16T06:34:11.917Z,2228
2017-06-16T06:35:20.847Z,1424
2017-06-16T06:36:29.734Z,1540
2017-06-16T06:37:38.872Z,1720
2017-06-16T06:38:47.760Z,1328
2017-06-16T06:39:56.659Z,1868
2017-06-16T06:41:05.585Z,1452
2017-06-16T06:42:15.143Z,1392
2017-06-16T06:43:24.287Z,1044
2017-06-16T06:44:33.822Z,1032
2017-06-16T06:45:43.688Z,2196
2017-06-16T06:46:52.903Z,1432
2017-06-16T06:48:01.792Z,1024
2017-06-16T06:49:10.727Z,1116
2017-06-16T06:50:20.262Z,1144
2017-06-16T06:51:29.153Z,1380
2017-06-16T06:52:38.042Z,1132
2017-06-16T06:53:47.255Z,1172
2017-06-16T06:54:56.444Z,1364
2017-06-16T06:56:05.340Z,1244
2017-06-16T06:57:14.244Z,1596
2017-06-16T06:58:23.473Z,1360
2017-06-16T06:59:32.687Z,1744
2017-06-16T07:00:41.826Z,1328
2017-06-16T07:01:50.711Z,1040
2017-06-16T07:02:59.603Z,1280
2017-06-16T07:04:08.492Z,2588
2017-06-16T07:05:17.713Z,2016
2017-06-16T07:06:26.852Z,1428
2017-06-16T07:07:35.741Z,1440
2017-06-16T07:08:44.633Z,1388
2017-06-16T07:09:53.528Z,1896
2017-06-16T07:11:02.420Z,1076
2017-06-16T07:12:11.686Z,1152
2017-06-16T07:13:20.899Z,1112
2017-06-16T07:14:29.790Z,1380
2017-06-16T07:15:38.681Z,1356
2017-06-16T07:16:47.568Z,1144
2017-06-16T07:17:56.554Z,1360
2017-06-16T07:19:05.449Z,2660
2017-06-16T07:20:14.375Z,2176
2017-06-16T07:21:23.641Z,1464
2017-06-16T07:22:32.857Z,1496
2017-06-16T07:23:42.100Z,1580
2017-06-16T07:24:50.994Z,1728
2017-06-16T07:25:59.884Z,4020
2017-06-16T07:27:08.774Z,2936
2017-06-16T07:28:17.662Z,2608
2017-06-16T07:29:26.754Z,2348
2017-06-16T07:30:35.646Z,2244
2017-06-16T07:31:44.539Z,2104
2017-06-16T07:32:53.449Z,4572
2017-06-16T07:34:02.342Z,2028
2017-06-16T07:35:11.391Z,2088
2017-06-16T07:36:20.609Z,2680
2017-06-16T07:37:29.827Z,4392
2017-06-16T07:38:39.041Z,5844
2017-06-16T07:39:47.932Z,4432
2017-06-16T07:40:57.447Z,2188
2017-06-16T07:42:06.351Z,2520
2017-06-16T07:43:15.239Z,2628
2017-06-16T07:44:24.133Z,1400
2017-06-16T07:45:33.350Z,1692
2017-06-16T07:46:42.388Z,1592
2017-06-16T07:47:51.293Z,1236
2017-06-16T07:49:00.519Z,1380
2017-06-16T07:50:09.442Z,1848
2017-06-16T07:51:18.340Z,3864
2017-06-16T07:52:27.279Z,2928
2017-06-16T07:53:36.170Z,2740
2017-06-16T07:54:45.388Z,3148
2017-06-16T07:55:54.611Z,4480
2017-06-16T07:57:04.156Z,4884
2017-06-16T07:58:13.058Z,5084
2017-06-16T07:59:22.000Z,3448
2017-06-16T08:00:31.227Z,3148
2017-06-16T08:01:40.154Z,3012
2017-06-16T08:02:49.703Z,2744
2017-06-16T08:03:59.089Z,2116
2017-06-16T08:05:07.984Z,2216
2017-06-16T08:06:16.873Z,2496
2017-06-16T08:07:25.768Z,2736
2017-06-16T08:08:34.994Z,3508
2017-06-16T08:09:44.181Z,2644
2017-06-16T08:10:53.070Z,2644
2017-06-16T08:12:02.285Z,1544
2017-06-16T08:13:11.499Z,1388
2017-06-16T08:14:20.389Z,1700
2017-06-16T08:15:29.541Z,1596
2017-06-16T08:16:38.469Z,1616
2017-06-16T08:17:47.362Z,1736
2017-06-16T08:18:56.250Z,1828
2017-06-16T08:20:05.145Z,1852
2017-06-16T08:21:14.085Z,1892
2017-06-16T08:22:22.972Z,2232
2017-06-16T08:23:32.196Z,4096
2017-06-16T08:24:41.090Z,3724
2017-06-16T08:25:50.307Z,4544
2017-06-16T08:26:59.246Z,4084
2017-06-16T08:28:08.468Z,3608
2017-06-16T08:29:17.361Z,5600
2017-06-16T08:30:26.255Z,4824
2017-06-16T08:31:35.470Z,7936
2017-06-16T08:32:44.510Z,4756
2017-06-16T08:33:53.401Z,5828
2017-06-16T08:35:02.298Z,5836
2017-06-16T08:36:11.524Z,5460
2017-06-16T08:37:20.416Z,5604
2017-06-16T08:38:29.363Z,7096
2017-06-16T08:39:38.264Z,6940
2017-06-16T08:40:47.493Z,5160
2017-06-16T08:41:56.383Z,3232
2017-06-16T08:43:05.273Z,3592
2017-06-16T08:44:14.642Z,4204
2017-06-16T08:45:23.544Z,5092
2017-06-16T08:46:32.437Z,4416
2017-06-16T08:47:41.652Z,3716
2017-06-16T08:48:50.869Z,2688
2017-06-16T08:49:59.863Z,3480
2017-06-16T08:51:08.758Z,3680
2017-06-16T08:52:17.648Z,3596
2017-06-16T08:53:26.543Z,3416
2017-06-16T08:54:35.437Z,3724
2017-06-16T08:55:44.805Z,4596
2017-06-16T08:56:53.702Z,3264
2017-06-16T08:58:02.601Z,2812
2017-06-16T08:59:11.500Z,3080
2017-06-16T09:00:20.719Z,3248
2017-06-16T09:01:29.865Z,4728
2017-06-16T09:02:38.773Z,4180
2017-06-16T09:03:47.672Z,8020
2017-06-16T09:04:56.564Z,6860
2017-06-16T09:06:05.777Z,3820
2017-06-16T09:07:14.820Z,5132
2017-06-16T09:08:24.036Z,5216
2017-06-16T09:09:33.253Z,7852
2017-06-16T09:10:42.473Z,6804
2017-06-16T09:11:51.365Z,4628
2017-06-16T09:13:00.588Z,5116
2017-06-16T09:14:09.481Z,5688
2017-06-16T09:15:18.371Z,4656
2017-06-16T09:16:27.264Z,5208
2017-06-16T09:17:36.156Z,4524
2017-06-16T09:18:45.252Z,5684
2017-06-16T09:19:54.151Z,5884
2017-06-16T09:21:03.040Z,4792
2017-06-16T09:22:12.254Z,4428
2017-06-16T09:23:21.166Z,5356
2017-06-16T09:24:30.633Z,5580
2017-06-16T09:25:39.859Z,6440
2017-06-16T09:26:48.752Z,6952
2017-06-16T09:27:57.980Z,6276
2017-06-16T09:29:07.206Z,5352
2017-06-16T09:30:16.529Z,8680
2017-06-16T09:31:25.745Z,5548
2017-06-16T09:32:34.978Z,7612
2017-06-16T09:33:44.194Z,6540
2017-06-16T09:34:53.414Z,5784
2017-06-16T09:36:02.455Z,7300
2017-06-16T09:37:11.707Z,4784
2017-06-16T09:38:20.613Z,2948
2017-06-16T09:39:29.505Z,1924
2017-06-16T09:40:39.374Z,1368
2017-06-16T09:41:48.850Z,1148
2017-06-16T09:42:57.751Z,896
2017-06-16T09:44:06.643Z,808
2017-06-16T09:45:15.546Z,1072
2017-06-16T09:46:24.762Z,1488
2017-06-16T09:47:33.855Z,1440
2017-06-16T09:48:43.073Z,1224
2017-06-16T09:49:52.294Z,1100
2017-06-16T09:51:01.187Z,1404
2017-06-16T09:52:10.075Z,2384
2017-06-16T09:53:19.018Z,3068
2017-06-16T09:54:28.256Z,4536
2017-06-16T09:55:37.796Z,5896
2017-06-16T09:56:46.685Z,7160
2017-06-16T09:57:55.576Z,7132
2017-06-16T09:59:04.464Z,6304
2017-06-16T10:00:13.361Z,4396
2017-06-16T10:01:22.579Z,3124
2017-06-16T10:02:31.468Z,4756
2017-06-16T10:03:40.685Z,6924
2017-06-16T10:04:49.574Z,6852
2017-06-16T10:05:58.784Z,6544
2017-06-16T10:07:08.003Z,6420
2017-06-16T10:08:17.222Z,7236
2017-06-16T10:09:26.436Z,6404
2017-06-16T10:10:35.671Z,6048
2017-06-16T10:11:44.561Z,5712
2017-06-16T10:12:53.452Z,5912
2017-06-16T10:14:02.395Z,5984
2017-06-16T10:15:11.610Z,7308
2017-06-16T10:16:20.902Z,8020
2017-06-16T10:17:30.114Z,5628
2017-06-16T10:18:39.007Z,4140
2017-06-16T10:19:47.902Z,4072
2017-06-16T10:20:56.788Z,4252
2017-06-16T10:22:05.831Z,3292
2017-06-16T10:23:14.722Z,2788
2017-06-16T10:24:23.939Z,3288
2017-06-16T10:25:33.477Z,3084
2017-06-16T10:26:42.366Z,3740
2017-06-16T10:27:51.260Z,4912
2017-06-16T10:29:00.147Z,5592
2017-06-16T10:30:09.035Z,4104
2017-06-16T10:31:17.926Z,3192
2017-06-16T10:32:26.815Z,2988
2017-06-16T10:33:35.756Z,2932
2017-06-16T10:34:44.644Z,3168
2017-06-16T10:35:54.183Z,3216
2017-06-16T10:37:03.077Z,2148
2017-06-16T10:38:12.293Z,1828
2017-06-16T10:39:21.885Z,1968
2017-06-16T10:40:30.777Z,2272
2017-06-16T10:41:39.671Z,2960
2017-06-16T10:42:48.575Z,3148
2017-06-16T10:43:57.462Z,3448
2017-06-16T10:45:06.886Z,3556
2017-06-16T10:46:16.099Z,3604
2017-06-16T10:47:25.662Z,3592
2017-06-16T10:48:34.550Z,4692
2017-06-16T10:49:43.441Z,6208
2017-06-16T10:50:52.806Z,6000
2017-06-16T10:52:01.702Z,3564
2017-06-16T10:53:10.591Z,2812
2017-06-16T10:54:19.481Z,2200
2017-06-16T10:55:28.369Z,2336
2017-06-16T10:56:37.411Z,2692
2017-06-16T10:57:46.307Z,2988
2017-06-16T10:58:55.195Z,3392
2017-06-16T11:00:04.083Z,4112
2017-06-16T11:01:12.980Z,5236
2017-06-16T11:02:22.173Z,5908
2017-06-16T11:03:31.065Z,6472
2017-06-16T11:04:40.280Z,7604
2017-06-16T11:05:49.175Z,9212
2017-06-16T11:06:58.390Z,10132
2017-06-16T11:08:07.682Z,10888
2017-06-16T11:09:16.899Z,11632
2017-06-16T11:10:26.114Z,11344
2017-06-16T11:11:35.004Z,9664
2017-06-16T11:12:44.220Z,6864
2017-06-16T11:13:53.165Z,7732
2017-06-16T11:15:02.422Z,8480
2017-06-16T11:16:11.317Z,7608
2017-06-16T11:17:20.208Z,4952
2017-06-16T11:18:29.105Z,3956
2017-06-16T11:19:38.471Z,3504
2017-06-16T11:20:47.693Z,3220
2017-06-16T11:21:56.910Z,3236
2017-06-16T11:23:06.450Z,4188
2017-06-16T11:24:15.351Z,5348
2017-06-16T11:25:24.821Z,5664
2017-06-16T11:26:33.715Z,5700
2017-06-16T11:27:42.929Z,6496
2017-06-16T11:28:52.470Z,7884
2017-06-16T11:30:01.694Z,9548
2017-06-16T11:31:10.637Z,9964
2017-06-16T11:32:19.858Z,11540
2017-06-16T11:33:28.747Z,11616
2017-06-16T11:34:37.963Z,7700
2017-06-16T11:35:47.225Z,5884
2017-06-16T11:36:57.094Z,5036
2017-06-16T11:38:05.989Z,5092
2017-06-16T11:39:14.879Z,6044
2017-06-16T11:40:24.101Z,6720
2017-06-16T11:41:33.318Z,7544
2017-06-16T11:42:42.473Z,9068
2017-06-16T11:43:51.366Z,11028
2017-06-16T11:45:00.258Z,11536
2017-06-16T11:46:09.151Z,10208
2017-06-16T11:47:18.686Z,8076
2017-06-16T11:48:28.178Z,6980
2017-06-16T11:49:37.067Z,7668
2017-06-16T11:50:46.286Z,8608
2017-06-16T11:51:55.181Z,10436
2017-06-16T11:53:04.398Z,11012
2017-06-16T11:54:13.434Z,14252
2017-06-16T11:55:22.323Z,18496
2017-06-16T11:56:31.216Z,9296
2017-06-16T11:57:40.168Z,13688
2017-06-16T11:58:49.062Z,22592
2017-06-16T11:59:58.109Z,11980
2017-06-16T12:01:07.057Z,18144
2017-06-16T12:02:16.278Z,13504
2017-06-16T12:03:25.168Z,6668
2017-06-16T12:04:34.386Z,6116
2017-06-16T12:05:44.078Z,6888
2017-06-16T12:06:53.332Z,6360
2017-06-16T12:08:02.223Z,6156
2017-06-16T12:09:11.114Z,5976
2017-06-16T12:10:20.006Z,6280
2017-06-16T12:11:29.276Z,6820
2017-06-16T12:12:38.184Z,8112
2017-06-16T12:13:47.403Z,10952
2017-06-16T12:14:56.946Z,10464
2017-06-16T12:16:06.161Z,12356
2017-06-16T12:17:15.205Z,13032
2017-06-16T12:18:24.101Z,11976
2017-06-16T12:19:33.644Z,14660
2017-06-16T12:20:42.861Z,33088
2017-06-16T12:21:52.088Z,16480
2017-06-16T12:23:02.162Z,15652
2017-06-16T12:24:11.381Z,10756
2017-06-16T12:25:20.273Z,16256
2017-06-16T12:26:29.176Z,4296
2017-06-16T12:27:38.101Z,2444
2017-06-16T12:28:47.578Z,2172
2017-06-16T12:29:56.797Z,1468
2017-06-16T12:31:06.339Z,1108
2017-06-16T12:32:15.236Z,1132
2017-06-16T12:33:24.126Z,1800
2017-06-16T12:34:33.498Z,2476
2017-06-16T12:35:42.392Z,4060
2017-06-16T12:36:51.288Z,5736
2017-06-16T12:38:00.180Z,7228
2017-06-16T12:39:09.077Z,9572
2017-06-16T12:40:18.448Z,12816
2017-06-16T12:41:27.668Z,6884
2017-06-16T12:42:36.562Z,5612
2017-06-16T12:43:45.455Z,4852
2017-06-16T12:44:54.672Z,4208
2017-06-16T12:46:03.628Z,3936
2017-06-16T12:47:12.541Z,4804
2017-06-16T12:48:21.435Z,9512
2017-06-16T12:49:30.331Z,18496
2017-06-16T12:50:39.549Z,16960
2017-06-16T12:51:49.094Z,32640
2017-06-16T12:52:59.287Z,6056
2017-06-16T12:54:08.506Z,4552
2017-06-16T12:55:17.403Z,3248
2017-06-16T12:56:27.272Z,2480
2017-06-16T12:57:36.322Z,2608
2017-06-16T12:58:45.864Z,2132
2017-06-16T12:59:55.411Z,1868
2017-06-16T13:01:04.305Z,1376
2017-06-16T13:02:13.201Z,1128
2017-06-16T13:03:22.192Z,980
2017-06-16T13:04:31.085Z,1000
2017-06-16T13:05:40.307Z,828
2017-06-16T13:06:49.521Z,872
2017-06-16T13:07:59.062Z,920
2017-06-16T13:09:08.437Z,1472
2017-06-16T13:10:17.341Z,1728
2017-06-16T13:11:26.250Z,1824
2017-06-16T13:12:35.140Z,2020
2017-06-16T13:13:44.029Z,2084
2017-06-16T13:14:53.224Z,2532
2017-06-16T13:16:02.439Z,3292
2017-06-16T13:17:11.327Z,3656
2017-06-16T13:18:20.544Z,3600
2017-06-16T13:19:29.430Z,3852
2017-06-16T13:20:38.623Z,4132
2017-06-16T13:21:47.521Z,4816
2017-06-16T13:22:57.095Z,5748
2017-06-16T13:24:06.317Z,5088
2017-06-16T13:25:15.531Z,4008
2017-06-16T13:26:24.576Z,4256
2017-06-16T13:27:33.463Z,4232
2017-06-16T13:28:42.353Z,4700
2017-06-16T13:29:51.572Z,5640
2017-06-16T13:31:00.792Z,6440
2017-06-16T13:32:09.884Z,6244
2017-06-16T13:33:18.774Z,6252
2017-06-16T13:34:27.662Z,5736
2017-06-16T13:35:36.557Z,5192
2017-06-16T13:36:45.445Z,4808
2017-06-16T13:37:54.913Z,4588
2017-06-16T13:39:04.129Z,4428
2017-06-16T13:40:13.018Z,4124
2017-06-16T13:41:22.569Z,5164
2017-06-16T13:42:31.458Z,9804
2017-06-16T13:43:41.218Z,12272
2017-06-16T13:44:50.110Z,9820
2017-06-16T13:45:59.326Z,7176
2017-06-16T13:47:08.544Z,5016
2017-06-16T13:48:17.438Z,3968
2017-06-16T13:49:26.575Z,3592
2017-06-16T13:50:35.804Z,2544
2017-06-16T13:51:44.691Z,2024
2017-06-16T13:52:53.578Z,1708
2017-06-16T13:54:02.461Z,1480
2017-06-16T13:55:11.824Z,1424
2017-06-16T13:56:21.038Z,1612
2017-06-16T13:57:30.256Z,2216
2017-06-16T13:58:39.145Z,2844
2017-06-16T13:59:48.361Z,3300
2017-06-16T14:00:57.249Z,4988
2017-06-16T14:02:06.463Z,5904
2017-06-16T14:03:15.675Z,4816
2017-06-16T14:04:24.567Z,4824
2017-06-16T14:05:33.457Z,5776
2017-06-16T14:06:42.723Z,7604
2017-06-16T14:07:51.934Z,8032
2017-06-16T14:09:01.478Z,23552
2017-06-16T14:10:10.701Z,9832
2017-06-16T14:11:19.590Z,6832
2017-06-16T14:12:28.829Z,5064
2017-06-16T14:13:37.718Z,4876
2017-06-16T14:14:46.936Z,5160
2017-06-16T14:15:55.826Z,4856
2017-06-16T14:17:05.046Z,4348
2017-06-16T14:18:14.410Z,4536
2017-06-16T14:19:23.630Z,4036
2017-06-16T14:20:32.526Z,4008
2017-06-16T14:21:41.741Z,3848
2017-06-16T14:22:51.608Z,4052
2017-06-16T14:24:01.248Z,4480
2017-06-16T14:25:10.462Z,4956
2017-06-16T14:26:19.349Z,3864
2017-06-16T14:27:28.252Z,2752
2017-06-16T14:28:37.139Z,2724
2017-06-16T14:29:46.402Z,2868
2017-06-16T14:30:55.620Z,3164
2017-06-16T14:32:04.521Z,3456
2017-06-16T14:33:13.738Z,3528
2017-06-16T14:34:22.628Z,3964
2017-06-16T14:35:31.568Z,3212
2017-06-16T14:36:40.453Z,2812
2017-06-16T14:37:49.350Z,3184
2017-06-16T14:38:58.240Z,4104
2017-06-16T14:40:07.131Z,4456
2017-06-16T14:41:16.278Z,3924
2017-06-16T14:42:25.164Z,2560
2017-06-16T14:43:34.056Z,2672
2017-06-16T14:44:42.949Z,4144
2017-06-16T14:45:51.843Z,5200
2017-06-16T14:47:01.261Z,6016
2017-06-16T14:48:10.479Z,7056
2017-06-16T14:49:19.369Z,7196
2017-06-16T14:50:28.588Z,8360
2017-06-16T14:51:37.806Z,8440
2017-06-16T14:52:46.845Z,7944
2017-06-16T14:53:55.736Z,8840
2017-06-16T14:55:05.273Z,7356
2017-06-16T14:56:14.162Z,7440
2017-06-16T14:57:23.381Z,5944
2017-06-16T14:58:32.568Z,5196
2017-06-16T14:59:41.783Z,3852
2017-06-16T15:00:50.672Z,3604
2017-06-16T15:02:00.220Z,3652
2017-06-16T15:03:09.436Z,3616
2017-06-16T15:04:18.527Z,3932
2017-06-16T15:05:27.744Z,3308
2017-06-16T15:06:36.643Z,3156
2017-06-16T15:07:45.856Z,4140
2017-06-16T15:08:54.748Z,4736
2017-06-16T15:10:04.115Z,6452
2017-06-16T15:11:13.008Z,11544
2017-06-16T15:12:21.899Z,10140
2017-06-16T15:13:30.797Z,8728
2017-06-16T15:14:40.011Z,7888
2017-06-16T15:15:49.385Z,5900
2017-06-16T15:16:58.280Z,4076
2017-06-16T15:18:07.170Z,3840
2017-06-16T15:19:16.384Z,3988
2017-06-16T15:20:25.273Z,3368
2017-06-16T15:21:34.217Z,2852
2017-06-16T15:22:43.766Z,3196
2017-06-16T15:23:52.985Z,3444
2017-06-16T15:25:01.874Z,3340
2017-06-16T15:26:10.765Z,3456
2017-06-16T15:27:19.981Z,4188
2017-06-16T15:28:28.869Z,3312
2017-06-16T15:29:37.759Z,2744
2017-06-16T15:30:46.650Z,2204
2017-06-16T15:31:55.565Z,1944
2017-06-16T15:33:05.956Z,2328
2017-06-16T15:34:15.497Z,2964
2017-06-16T15:35:24.389Z,3632
2017-06-16T15:36:33.281Z,5184
2017-06-16T15:37:42.173Z,7024
2017-06-16T15:38:51.209Z,7100
2017-06-16T15:40:00.749Z,8452